createdAt,value
2022-11-23T07:47:19.007Z,43.05
2022-11-23T07:49:47.390Z,40.35
2022-11-23T07:52:15.106Z,42.75
2022-11-23T07:54:42.801Z,40.17
2022-11-23T07:57:10.411Z,40.45
2022-11-23T07:59:38.008Z,38.38
2022-11-23T08:02:05.800Z,40.70
2022-11-23T08:04:37.033Z,38.40
2022-11-23T08:07:05.432Z,37.63
2022-11-23T08:09:33.014Z,40.92
2022-11-23T08:12:01.166Z,42.13
2022-11-23T08:14:33.440Z,42.35
2022-11-23T08:17:01.226Z,46.63
2022-11-23T08:19:29.129Z,41.72
2022-11-23T08:21:58.754Z,39.67
2022-11-23T08:24:26.314Z,38.10
2022-11-23T08:26:54.244Z,38.38
2022-11-23T08:29:22.006Z,39.03
2022-11-23T08:31:49.802Z,39.92
2022-11-23T08:34:17.368Z,36.03
2022-11-23T08:36:45.302Z,38.35
2022-11-23T08:39:14.646Z,37.08
2022-11-23T08:41:42.711Z,35.83
2022-11-23T08:44:10.793Z,32.80
2022-11-23T08:46:38.974Z,31.08
2022-11-23T08:49:06.983Z,30.75
2022-11-23T08:51:35.148Z,25.15
2022-11-23T08:54:02.827Z,23.48
2022-11-23T08:56:32.786Z,22.67
2022-11-23T08:59:00.461Z,19.58
2022-11-23T09:01:28.284Z,20.02
2022-11-23T09:03:55.868Z,22.65
2022-11-23T09:06:24.617Z,19.65
2022-11-23T09:08:52.709Z,24.02
2022-11-23T09:11:20.286Z,20.02
2022-11-23T09:13:50.566Z,19.55
2022-11-23T09:16:22.105Z,20.35
2022-11-23T09:18:50.575Z,18.85
2022-11-23T09:21:18.246Z,17.45
2022-11-23T09:23:45.772Z,17.45
2022-11-23T09:26:13.847Z,15.23
2022-11-23T09:28:45.009Z,16.45
2022-11-23T09:31:14.440Z,17.73
2022-11-23T09:33:42.289Z,15.65
2022-11-23T09:36:10.115Z,16.20
2022-11-23T09:38:56.119Z,15.90
2022-11-23T09:41:51.127Z,16.00
2022-11-23T09:44:24.842Z,14.25
2022-11-23T09:47:23.526Z,14.35
2022-11-23T09:50:02.447Z,14.05
2022-11-23T09:52:31.438Z,14.73
2022-11-23T09:55:05.484Z,15.00
2022-11-23T09:57:35.035Z,13.93
2022-11-23T10:00:06.304Z,16.02
2022-11-23T10:02:40.567Z,14.30
2022-11-23T10:05:16.267Z,14.63
2022-11-23T10:07:55.192Z,15.63
2022-11-23T10:10:38.873Z,13.40
2022-11-23T10:13:22.472Z,14.02
2022-11-23T10:16:02.558Z,14.32
2022-11-23T10:18:45.960Z,15.77
2022-11-23T10:21:22.621Z,13.60
2022-11-23T10:23:54.094Z,10.82
2022-11-23T10:26:29.080Z,11.60
2022-11-23T10:29:02.864Z,10.60
2022-11-23T10:31:31.511Z,11.73
2022-11-23T10:34:08.455Z,9.23
2022-11-23T10:36:37.127Z,10.00
2022-11-23T10:39:16.671Z,9.07
2022-11-23T10:41:45.403Z,10.32
2022-11-23T10:44:27.055Z,11.40
2022-11-23T10:46:54.880Z,9.75
2022-11-23T10:49:25.124Z,9.38
2022-11-23T10:51:56.420Z,9.20
2022-11-23T10:54:29.153Z,9.05
2022-11-23T10:56:59.349Z,10.13
2022-11-23T10:59:38.897Z,10.38
2022-11-23T11:02:18.531Z,10.77
2022-11-23T11:04:53.245Z,10.75
2022-11-23T11:07:27.971Z,11.23
2022-11-23T11:09:58.204Z,11.07
2022-11-23T11:12:27.193Z,11.80
2022-11-23T11:15:10.466Z,12.85
2022-11-23T11:17:40.084Z,13.40
2022-11-23T11:20:29.273Z,14.45
2022-11-23T11:22:58.230Z,14.73
2022-11-23T11:25:30.648Z,15.98
2022-11-23T11:27:59.479Z,15.48
2022-11-23T11:30:38.905Z,13.18
2022-11-23T11:33:14.749Z,8.75
2022-11-23T11:35:49.259Z,8.23
2022-11-23T11:38:21.122Z,7.43
2022-11-23T11:40:51.007Z,9.35
2022-11-23T11:43:31.297Z,9.30
2022-11-23T11:46:27.911Z,8.93
2022-11-23T11:48:58.010Z,7.60
2022-11-23T11:51:34.387Z,7.70
2022-11-23T11:54:13.617Z,8.20
2022-11-23T11:56:44.988Z,7.35
2022-11-23T11:59:17.286Z,7.32
2022-11-23T12:01:54.376Z,7.88
2022-11-23T12:04:28.318Z,8.73
2022-11-23T12:07:05.836Z,8.15
2022-11-23T12:09:40.458Z,7.60
2022-11-23T12:12:15.147Z,7.78
2022-11-23T12:14:43.905Z,8.23
2022-11-23T12:17:45.702Z,10.50
2022-11-23T12:20:20.740Z,8.70
2022-11-23T12:23:04.636Z,8.95
2022-11-23T12:25:35.288Z,9.32
2022-11-23T12:28:27.943Z,9.73
